Air Resources Laboratory banner image
Air Resources Laboratory web site National Oceanic and Atmospheric Administration (NOAA)

ma metar


KACK 181553Z 21012KT 10SM CLR 26/23 A2983 RMK AO2 SLP100 T02560228=
KAQW 181552Z AUTO 27006KT 9SM -RA OVC027 22/19 A2985 RMK AO2 RAE08B49 SLP105
 P0000 T02170189=
KBAF 181553Z 18005KT 10SM FEW014 27/24 A2981 RMK AO2 SLP090 T02720239 $=
KBED 181556Z 23007KT 10SM SCT020 BKN070 BKN110 27/22 A2978 RMK AO2 SLP095
 T02720222=
KBOS 181554Z 26008KT 10SM FEW025 SCT070 BKN130 BKN220 29/21 A2978 RMK AO2
 SLP085 T02890211 $=
KBVY 181553Z 30010KT 10SM SCT022 27/23 A2978 RMK AO2 SLP077 T02720228=
KCEF 181556Z 18007KT 10SM FEW018 SCT110 BKN190 BKN210 27/22 A2980 RMK AO2A
 SLP095 T02660220=
KCQX 181552Z AUTO 22011G18KT 8SM BKN009 OVC012 27/24 A2982 RMK AO2 SLP097
 T02720239=
KEWB 181553Z 25010KT 10SM BKN011 28/24 A2979 RMK AO2 SLP088 T02830239=
KFIT 181552Z AUTO 26007KT 10SM SCT028 BKN034 28/21 A2980 RMK AO2 SLP090
 T02780211=
KFMH 181555Z AUTO 23014KT 10SM BKN009 BKN013 26/23 A2982 RMK AO2=
KHYA 181556Z 22015KT 7SM FEW011 27/24 A2980 RMK AO2 SLP090 T02720239=
KLWM 181554Z 24006KT 10SM BKN023 BKN030 29/22 A2980 RMK AO2 SLP088 T02890222=
KMQE 181556Z AUTO 25007KT 27/22 A2981 RMK AO1 SLP098 T02670222=
KMVY 181553Z 24009KT 8SM BKN016 27/24 A2982 RMK AO2 SLP097 T02670239=
KORE 181552Z AUTO 34015G22KT 10SM FEW018 BKN027 OVC033 27/21 A2983 RMK AO2
 SLP096 T02720211=
KORH 181554Z 25009KT 10SM SCT020 24/21 A2984 RMK AO2 SLP099 T02440211=
KOWD 181553Z 26008KT 10SM FEW024 29/23 A2978 RMK AO2 SLP085 T02940233=
KPSF 181554Z AUTO 24008KT 10SM FEW025 26/20 A2983 RMK AO2 SLP074 T02610200=
KPVC 181556Z AUTO 23012KT 10SM CLR 27/23 A2980 RMK AO2 SLP089 T02670233=
KPYM 181552Z AUTO 24011KT 10SM CLR 29/23 A2980 RMK AO2 SLP089 T02940228=
KTAN 181552Z AUTO VRB06KT 10SM FEW020 29/23 A2979 RMK AO2 SLP087 T02890228=